Time;durP1;ratioP1;P1;durP2;ratioP2;P2;SDS_P1;SDS_P2;PMS_P1;PMS_P2;Temp;Humidity;BMP_temperature;BMP_pressure;BME280_temperature;BME280_humidity;BME280_pressure;Samples;Min_cycle;Max_cycle;Signal;HPM_P1;HPM_P2
2021/11/06 00:03:40;;;;;;;15.90;8.23;;;7.40;99.90;;;;;;12332773;28;20125;-86
2021/11/06 00:09:42;;;;;;;13.65;8.32;;;7.30;99.90;;;;;;12303124;28;20503;-86
2021/11/06 00:15:45;;;;;;;17.92;9.00;;;7.30;99.90;;;;;;12306978;28;20053;-86
2021/11/06 00:21:47;;;;;;;21.58;9.05;;;7.20;99.90;;;;;;12302091;28;20053;-86
2021/11/06 00:27:50;;;;;;;17.80;10.00;;;7.20;99.90;;;;;;12307335;28;20051;-86
2021/11/06 00:33:52;;;;;;;18.02;9.25;;;7.10;99.90;;;;;;12301876;28;20050;-86
2021/11/06 00:39:54;;;;;;;20.23;9.70;;;7.20;99.90;;;;;;12304719;28;20213;-86
2021/11/06 00:45:56;;;;;;;15.02;9.50;;;7.20;99.90;;;;;;12298566;28;20081;-86
2021/11/06 00:51:58;;;;;;;14.52;8.75;;;7.20;99.90;;;;;;12303495;28;20057;-85
2021/11/06 00:58:00;;;;;;;15.45;8.90;;;7.20;99.90;;;;;;12306179;28;20062;-85
2021/11/06 01:04:06;;;;;;;12.07;9.02;;;7.20;99.90;;;;;;12298442;28;20042;-86
2021/11/06 01:10:11;;;;;;;13.95;8.65;;;7.30;99.90;;;;;;12319646;28;20101;-86
2021/11/06 01:16:13;;;;;;;12.73;8.82;;;7.30;99.90;;;;;;12303614;28;20104;-84
2021/11/06 01:22:14;;;;;;;12.65;8.77;;;7.20;99.90;;;;;;12305341;28;20665;-86
2021/11/06 01:28:17;;;;;;;14.75;9.38;;;7.20;99.90;;;;;;12303017;28;20054;-85
2021/11/06 01:34:19;;;;;;;11.85;8.57;;;7.10;99.90;;;;;;12330642;28;20055;-86
2021/11/06 01:40:21;;;;;;;14.30;9.40;;;7.10;99.90;;;;;;12297842;28;20514;-86
2021/11/06 01:46:23;;;;;;;16.00;9.38;;;7.10;99.90;;;;;;12336501;28;20047;-86
2021/11/06 01:52:25;;;;;;;19.83;8.82;;;7.10;99.90;;;;;;12296170;28;20058;-85
2021/11/06 01:58:28;;;;;;;12.73;9.00;;;7.10;99.90;;;;;;12307790;28;20265;-86
2021/11/06 02:04:30;;;;;;;13.27;9.23;;;7.00;99.90;;;;;;12297719;28;20043;-84
2021/11/06 02:10:32;;;;;;;13.75;8.77;;;7.00;99.90;;;;;;12311353;28;20070;-85
2021/11/06 02:16:35;;;;;;;14.40;9.15;;;7.00;99.90;;;;;;12309205;28;20058;-85
2021/11/06 02:22:36;;;;;;;16.42;10.18;;;7.00;99.90;;;;;;12310531;28;20047;-85
2021/11/06 02:28:42;;;;;;;12.45;9.63;;;7.00;99.90;;;;;;12299848;28;20047;-86
2021/11/06 02:34:44;;;;;;;15.98;10.10;;;7.00;99.90;;;;;;12326353;28;20989;-85
2021/11/06 02:40:46;;;;;;;13.93;10.48;;;6.80;99.90;;;;;;12302285;28;20051;-85
2021/11/06 02:46:47;;;;;;;15.35;9.82;;;6.90;99.90;;;;;;12303844;28;20059;-86
2021/11/06 02:52:49;;;;;;;15.07;10.07;;;6.90;99.90;;;;;;12306991;28;20097;-85
2021/11/06 02:58:53;;;;;;;15.73;9.35;;;6.90;99.90;;;;;;12301505;28;20420;-85
2021/11/06 03:04:55;;;;;;;14.82;8.90;;;6.80;99.90;;;;;;12306905;28;20067;-85
2021/11/06 03:10:57;;;;;;;14.73;9.27;;;6.70;99.90;;;;;;12291859;28;20047;-85
2021/11/06 03:16:58;;;;;;;13.98;8.60;;;6.70;99.90;;;;;;12334292;28;20113;-86
2021/11/06 03:23:00;;;;;;;14.40;9.50;;;6.70;99.90;;;;;;12299037;28;20046;-85
2021/11/06 03:29:02;;;;;;;15.27;8.85;;;6.70;99.90;;;;;;12304204;28;20102;-86
2021/11/06 03:35:08;;;;;;;17.85;9.32;;;6.60;99.90;;;;;;12340351;28;20043;-87
2021/11/06 03:41:10;;;;;;;13.15;9.23;;;6.60;99.90;;;;;;12313540;28;20046;-85
2021/11/06 03:47:12;;;;;;;18.67;8.93;;;6.60;99.90;;;;;;12340478;28;20063;-85
2021/11/06 03:53:14;;;;;;;18.10;10.55;;;6.60;99.90;;;;;;12310923;28;20047;-85
2021/11/06 03:59:16;;;;;;;17.25;9.65;;;6.70;99.90;;;;;;12293322;28;20524;-86
2021/11/06 04:05:18;;;;;;;16.23;11.00;;;6.70;99.90;;;;;;12297589;28;20062;-85
2021/11/06 04:11:21;;;;;;;14.63;10.43;;;6.60;99.90;;;;;;12301884;28;20065;-84
2021/11/06 04:17:22;;;;;;;21.05;10.80;;;6.50;99.90;;;;;;12302603;28;20046;-84
2021/11/06 04:23:27;;;;;;;17.73;11.65;;;6.50;99.90;;;;;;12306566;28;20789;-83
2021/11/06 04:29:30;;;;;;;18.40;11.20;;;6.50;99.90;;;;;;12297924;28;20050;-86
2021/11/06 04:35:33;;;;;;;20.40;11.93;;;6.50;99.90;;;;;;12302357;28;20054;-85
2021/11/06 04:41:35;;;;;;;20.73;12.15;;;6.60;99.90;;;;;;12296027;28;20043;-84
2021/11/06 04:47:38;;;;;;;20.27;11.52;;;6.60;99.90;;;;;;12296078;28;20058;-84
2021/11/06 04:53:40;;;;;;;20.02;11.43;;;6.60;99.90;;;;;;12307888;28;20157;-83
2021/11/06 04:59:42;;;;;;;21.05;12.23;;;6.60;99.90;;;;;;12297564;28;20691;-83
2021/11/06 05:05:44;;;;;;;15.52;11.18;;;6.60;99.90;;;;;;12296507;28;20650;-85
2021/11/06 05:11:46;;;;;;;19.35;12.10;;;6.70;99.90;;;;;;12298756;28;20138;-86
2021/11/06 05:17:47;;;;;;;23.67;12.52;;;6.70;99.90;;;;;;12296400;28;20168;-85
2021/11/06 05:23:50;;;;;;;21.52;11.70;;;6.70;99.90;;;;;;12300939;28;20043;-85
2021/11/06 05:29:52;;;;;;;24.20;12.20;;;6.60;99.90;;;;;;12300861;28;20049;-86
2021/11/06 05:35:55;;;;;;;19.73;13.07;;;6.70;99.90;;;;;;12297289;28;20054;-84
2021/11/06 05:41:56;;;;;;;23.42;12.48;;;6.80;99.90;;;;;;12304700;28;20047;-83
2021/11/06 05:47:58;;;;;;;26.13;13.32;;;6.80;99.90;;;;;;12310723;28;20058;-86
2021/11/06 05:54:00;;;;;;;22.90;12.98;;;6.80;99.90;;;;;;12301724;28;20604;-84
2021/11/06 06:00:14;;;;;;;23.45;12.35;;;6.80;99.90;;;;;;12317018;28;20050;-85
2021/11/06 06:06:16;;;;;;;22.13;12.50;;;6.90;99.90;;;;;;12317026;28;20069;-84
2021/11/06 06:12:18;;;;;;;21.90;12.07;;;6.80;99.90;;;;;;12309434;28;20519;-86
2021/11/06 06:18:20;;;;;;;23.13;12.38;;;6.90;99.90;;;;;;12304317;28;20060;-83
2021/11/06 06:24:21;;;;;;;23.92;12.25;;;6.80;99.90;;;;;;12301611;28;20436;-83
2021/11/06 06:30:23;;;;;;;20.98;12.18;;;6.80;99.90;;;;;;12300816;28;20051;-83
2021/11/06 06:36:25;;;;;;;24.30;12.38;;;6.80;99.90;;;;;;12310759;28;20499;-85
2021/11/06 06:42:27;;;;;;;22.83;12.32;;;6.70;99.90;;;;;;12306989;28;20493;-82
2021/11/06 06:48:29;;;;;;;25.83;12.88;;;6.80;99.90;;;;;;12295951;28;20102;-85
2021/11/06 06:54:31;;;;;;;25.65;13.02;;;6.80;99.90;;;;;;12305305;28;20578;-82
2021/11/06 07:00:33;;;;;;;29.17;12.80;;;6.80;99.90;;;;;;12302935;28;20466;-84
2021/11/06 07:06:35;;;;;;;25.63;12.63;;;6.80;99.90;;;;;;12304329;28;20522;-85
2021/11/06 07:12:40;;;;;;;24.45;12.02;;;6.80;99.90;;;;;;12309170;28;20051;-83
2021/11/06 07:18:42;;;;;;;;;;;6.80;99.90;;;;;;12306622;28;20145;-85
2021/11/06 07:24:44;;;;;;;22.23;11.32;;;6.80;99.90;;;;;;12305192;28;20417;-83
2021/11/06 07:30:45;;;;;;;20.23;12.07;;;6.80;99.90;;;;;;12296701;28;20046;-84
2021/11/06 07:36:49;;;;;;;22.15;11.75;;;6.80;99.90;;;;;;12311122;28;20081;-83
2021/11/06 07:42:51;;;;;;;19.08;10.68;;;6.80;99.90;;;;;;12299758;28;20399;-82
2021/11/06 07:48:53;;;;;;;20.90;10.48;;;6.90;99.90;;;;;;12294349;28;20749;-83
2021/11/06 07:54:55;;;;;;;22.33;11.30;;;7.00;99.90;;;;;;12297633;28;20562;-84
2021/11/06 08:00:59;;;;;;;16.95;9.63;;;7.00;99.90;;;;;;12302313;28;20153;-85
2021/11/06 08:07:01;;;;;;;15.83;9.33;;;7.00;99.90;;;;;;12293377;28;20078;-85
2021/11/06 08:13:04;;;;;;;17.48;8.93;;;7.00;99.90;;;;;;12302326;28;20055;-84
2021/11/06 08:19:06;;;;;;;17.98;8.82;;;7.10;99.90;;;;;;12305216;28;21034;-83
2021/11/06 08:25:09;;;;;;;18.65;8.85;;;7.00;99.90;;;;;;12296819;28;20043;-85
2021/11/06 08:31:19;;;;;;;17.60;8.93;;;7.10;99.90;;;;;;12681400;27;20964;-42
2021/11/06 08:37:21;;;;;;;18.60;8.13;;;7.00;99.90;;;;;;12630855;28;20067;-37
2021/11/06 08:43:26;;;;;;;15.55;7.07;;;7.10;99.90;;;;;;12545655;28;20141;-37
2021/11/06 08:49:31;;;;;;;12.00;7.50;;;7.10;99.90;;;;;;12482896;28;20152;-36
2021/11/06 08:55:36;;;;;;;11.25;6.72;;;7.20;99.90;;;;;;12480705;28;20053;-37
2021/11/06 09:01:39;;;;;;;13.45;6.55;;;7.20;99.90;;;;;;12473165;28;20045;-37
2021/11/06 09:07:42;;;;;;;15.90;7.85;;;7.20;99.90;;;;;;12479518;28;20069;-41
2021/11/06 09:13:53;;;;;;;15.52;7.50;;;7.20;99.90;;;;;;12476394;28;20190;-37
2021/11/06 09:19:57;;;;;;;15.43;7.47;;;7.10;99.90;;;;;;12476532;28;20054;-38
2021/11/06 09:26:02;;;;;;;18.40;7.80;;;7.00;99.90;;;;;;12469443;28;20053;-36
2021/11/06 09:32:05;;;;;;;12.27;7.22;;;7.00;99.90;;;;;;12500870;28;20061;-37
2021/11/06 09:38:08;;;;;;;15.20;7.88;;;7.10;99.90;;;;;;12461498;28;20700;-38
2021/11/06 09:44:14;;;;;;;16.27;7.38;;;7.00;99.90;;;;;;12434781;28;20046;-37
2021/11/06 09:50:24;;;;;;;20.30;8.20;;;7.10;99.90;;;;;;12435670;28;20046;-37
2021/11/06 09:56:30;;;;;;;18.20;8.07;;;7.20;99.90;;;;;;12462614;28;20049;-37
2021/11/06 10:02:38;;;;;;;16.52;8.00;;;7.10;99.90;;;;;;12478267;28;20053;-41
2021/11/06 10:08:48;;;;;;;13.07;7.95;;;7.10;99.90;;;;;;12481120;28;20045;-37
2021/11/06 10:15:07;;;;;;;16.50;8.70;;;7.10;99.90;;;;;;12477495;28;20071;-38
2021/11/06 10:21:09;;;;;;;17.00;7.85;;;7.20;99.90;;;;;;12475797;28;20135;-42
2021/11/06 10:27:23;;;;;;;15.90;8.23;;;7.20;99.90;;;;;;12473657;28;20060;-43
2021/11/06 10:33:25;;;;;;;17.27;7.95;;;7.30;99.90;;;;;;12476520;28;20076;-40
2021/11/06 10:39:28;;;;;;;12.85;7.57;;;7.50;99.90;;;;;;12456742;28;20053;-42
2021/11/06 10:45:35;;;;;;;15.63;7.80;;;7.60;99.90;;;;;;12472308;28;20060;-41
2021/11/06 10:51:39;;;;;;;15.23;8.30;;;7.70;99.90;;;;;;12474074;28;20053;-38
2021/11/06 10:57:41;;;;;;;15.90;7.68;;;7.80;99.90;;;;;;12471525;28;20045;-38
2021/11/06 11:03:45;;;;;;;13.77;8.25;;;7.80;99.90;;;;;;12473359;28;20056;-37
2021/11/06 11:09:47;;;;;;;14.30;7.30;;;7.90;99.90;;;;;;12469636;28;20490;-37
2021/11/06 11:15:52;;;;;;;13.80;7.13;;;8.00;99.90;;;;;;12467739;28;20084;-37
2021/11/06 11:21:54;;;;;;;15.13;7.72;;;8.10;99.90;;;;;;12469291;28;20073;-37
2021/11/06 11:27:56;;;;;;;17.55;7.97;;;8.10;99.90;;;;;;12469333;28;20072;-37
2021/11/06 11:33:59;;;;;;;14.90;7.63;;;8.20;99.90;;;;;;12471842;28;20134;-38
2021/11/06 11:40:04;;;;;;;11.38;6.90;;;8.30;99.90;;;;;;12469475;28;20053;-41
2021/11/06 11:46:10;;;;;;;16.33;6.45;;;8.50;99.90;;;;;;12470346;28;20041;-41
2021/11/06 11:52:34;;;;;;;15.73;7.20;;;8.50;99.90;;;;;;12470772;28;20046;-38
2021/11/06 11:58:39;;;;;;;11.90;7.07;;;8.60;99.90;;;;;;12469182;28;20149;-37
2021/11/06 12:04:41;;;;;;;12.15;6.35;;;8.60;99.90;;;;;;12466962;28;20049;-38
2021/11/06 12:10:44;;;;;;;9.65;6.35;;;8.60;99.90;;;;;;12466307;28;20110;-40
2021/11/06 12:16:56;;;;;;;10.23;5.93;;;8.60;99.90;;;;;;12467542;28;21357;-42
2021/11/06 12:22:58;;;;;;;11.30;6.38;;;8.70;99.90;;;;;;12471401;28;20144;-42
2021/11/06 12:29:01;;;;;;;10.23;5.57;;;8.80;99.90;;;;;;12452774;28;20087;-37
2021/11/06 12:35:09;;;;;;;10.45;5.38;;;8.80;99.90;;;;;;12467890;28;20110;-41
2021/11/06 12:41:12;;;;;;;10.55;5.15;;;8.90;99.90;;;;;;12469911;28;20045;-42
2021/11/06 12:47:14;;;;;;;10.18;5.60;;;9.00;99.90;;;;;;12469509;28;20049;-41
2021/11/06 12:53:28;;;;;;;9.88;5.18;;;9.10;99.90;;;;;;12468084;28;20122;-38
2021/11/06 12:59:30;;;;;;;7.93;4.45;;;9.10;99.90;;;;;;12471832;28;20435;-38
2021/11/06 13:05:46;;;;;;;7.87;4.37;;;9.20;99.90;;;;;;12469945;28;20507;-38
2021/11/06 13:12:00;;;;;;;6.97;4.13;;;9.20;99.90;;;;;;12469375;28;20292;-39
2021/11/06 13:18:10;;;;;;;8.18;4.43;;;9.20;99.90;;;;;;12476871;28;20146;-43
2021/11/06 13:24:11;;;;;;;11.80;4.28;;;9.20;99.90;;;;;;12477367;28;20045;-42
2021/11/06 13:30:19;;;;;;;6.85;3.85;;;9.30;99.90;;;;;;12480591;28;20041;-35
2021/11/06 13:36:21;;;;;;;7.80;4.10;;;9.30;99.90;;;;;;12479024;28;20509;-36
2021/11/06 13:42:25;;;;;;;6.80;3.70;;;9.30;99.90;;;;;;12481413;28;20144;-40
2021/11/06 13:48:28;;;;;;;5.47;3.47;;;9.20;99.90;;;;;;12453705;28;20061;-39
2021/11/06 13:54:39;;;;;;;6.93;3.10;;;9.20;99.90;;;;;;12468765;28;20449;-41
2021/11/06 14:00:42;;;;;;;6.85;3.80;;;9.20;99.90;;;;;;12477269;28;20044;-41
2021/11/06 14:06:48;;;;;;;6.22;3.10;;;9.20;99.90;;;;;;12480097;28;20874;-41
2021/11/06 14:12:55;;;;;;;7.40;3.00;;;9.20;99.90;;;;;;12459052;28;20079;-37
2021/11/06 14:19:17;;;;;;;5.75;3.05;;;9.20;99.90;;;;;;12476822;28;20061;-42
2021/11/06 14:25:36;;;;;;;9.55;3.58;;;9.20;99.90;;;;;;12476712;28;20056;-37
2021/11/06 14:31:38;;;;;;;6.68;3.33;;;9.30;99.90;;;;;;12476403;28;20053;-42
2021/11/06 14:37:39;;;;;;;7.32;3.08;;;9.40;99.90;;;;;;12476086;28;20056;-37
2021/11/06 14:44:11;;;;;;;7.50;3.90;;;9.40;99.90;;;;;;12478088;28;20110;-42
2021/11/06 14:50:22;;;;;;;8.18;3.80;;;9.40;99.90;;;;;;12459427;28;20136;-37
2021/11/06 14:56:38;;;;;;;7.82;3.53;;;9.40;99.90;;;;;;12475589;28;20087;-37
2021/11/06 15:02:53;;;;;;;6.90;3.20;;;9.40;99.90;;;;;;12472812;28;20107;-37
2021/11/06 15:08:57;;;;;;;4.65;3.22;;;9.40;99.90;;;;;;12476669;28;20160;-37
2021/11/06 15:15:03;;;;;;;6.32;3.38;;;9.50;99.90;;;;;;12477606;28;20053;-41
2021/11/06 15:21:07;;;;;;;5.75;2.78;;;9.40;99.90;;;;;;12480681;28;20053;-41
2021/11/06 15:27:18;;;;;;;5.57;2.90;;;9.40;99.90;;;;;;12473923;28;20133;-37
2021/11/06 15:33:26;;;;;;;5.20;3.10;;;9.40;99.90;;;;;;12471351;28;20041;-37
2021/11/06 15:39:29;;;;;;;7.63;3.20;;;9.40;99.90;;;;;;12455629;28;20133;-37
2021/11/06 15:45:32;;;;;;;6.45;2.70;;;9.40;99.90;;;;;;12475587;28;20598;-41
2021/11/06 15:51:50;;;;;;;5.82;2.95;;;9.40;99.90;;;;;;12472823;28;20056;-41
2021/11/06 15:57:52;;;;;;;4.70;2.70;;;9.40;99.90;;;;;;12476598;28;20041;-41
2021/11/06 16:03:54;;;;;;;4.90;2.80;;;9.40;99.90;;;;;;12470186;28;20065;-41
2021/11/06 16:09:59;;;;;;;3.90;2.47;;;9.40;99.90;;;;;;12476056;28;20041;-36
2021/11/06 16:16:05;;;;;;;5.82;2.55;;;9.40;99.90;;;;;;12472397;28;20362;-41
2021/11/06 16:22:08;;;;;;;4.97;2.40;;;9.40;99.90;;;;;;12471386;28;20145;-41
2021/11/06 16:28:10;;;;;;;4.55;2.40;;;9.40;99.90;;;;;;12470412;28;20049;-41
2021/11/06 16:34:13;;;;;;;4.72;2.30;;;9.40;99.90;;;;;;12449021;28;20140;-37
2021/11/06 16:40:15;;;;;;;6.47;2.38;;;9.40;99.90;;;;;;12468633;28;20443;-37
2021/11/06 16:46:21;;;;;;;4.50;2.75;;;9.30;99.90;;;;;;12472672;28;20483;-37
2021/11/06 16:52:23;;;;;;;3.65;2.50;;;9.40;99.90;;;;;;12481282;28;20171;-41
2021/11/06 16:58:26;;;;;;;5.05;2.30;;;9.40;99.90;;;;;;12467019;28;20057;-37
2021/11/06 17:04:28;;;;;;;4.93;2.50;;;9.40;99.90;;;;;;12471396;28;20049;-37
2021/11/06 17:10:33;;;;;;;3.65;2.40;;;9.40;99.90;;;;;;12477902;28;20060;-41
2021/11/06 17:16:35;;;;;;;5.60;2.78;;;9.40;99.90;;;;;;12477199;28;20567;-37
2021/11/06 17:22:37;;;;;;;11.95;2.90;;;9.30;99.90;;;;;;12451461;28;20140;-37
2021/11/06 17:28:39;;;;;;;5.68;2.53;;;9.30;99.90;;;;;;12480230;28;20549;-43
2021/11/06 17:34:41;;;;;;;4.60;2.50;;;9.30;99.90;;;;;;12481307;28;20671;-41
2021/11/06 17:40:44;;;;;;;7.47;2.60;;;9.30;99.90;;;;;;12476248;28;20095;-37
2021/11/06 17:46:46;;;;;;;5.28;2.65;;;9.20;99.90;;;;;;12477141;28;20141;-43
2021/11/06 17:52:51;;;;;;;7.97;2.97;;;9.20;99.90;;;;;;12477738;28;20064;-42
2021/11/06 17:58:53;;;;;;;7.75;3.13;;;9.20;99.90;;;;;;12477101;28;20122;-42
2021/11/06 18:04:55;;;;;;;7.50;2.90;;;9.30;99.90;;;;;;12457543;28;20058;-41
2021/11/06 18:10:58;;;;;;;5.72;2.80;;;9.40;99.90;;;;;;12473596;28;20056;-38
2021/11/06 18:17:00;;;;;;;4.80;2.65;;;9.30;99.90;;;;;;12476153;28;20041;-41
2021/11/06 18:23:04;;;;;;;6.13;2.78;;;9.40;99.90;;;;;;12477159;28;20083;-42
2021/11/06 18:29:07;;;;;;;9.00;2.95;;;9.40;99.90;;;;;;12473466;28;20417;-43
2021/11/06 18:35:11;;;;;;;6.15;3.25;;;9.50;99.90;;;;;;12472678;28;20057;-42
2021/11/06 18:41:13;;;;;;;4.83;2.90;;;9.50;99.90;;;;;;12472688;28;20515;-38
2021/11/06 18:47:16;;;;;;;6.07;3.45;;;9.50;99.90;;;;;;12475216;28;20132;-41
2021/11/06 18:53:18;;;;;;;6.85;3.78;;;9.50;99.90;;;;;;12476947;28;20072;-38
2021/11/06 18:59:20;;;;;;;6.60;3.92;;;9.60;99.90;;;;;;12476166;28;20053;-41
2021/11/06 19:05:23;;;;;;;12.95;4.45;;;9.60;99.90;;;;;;12474749;28;20053;-38
2021/11/06 19:11:25;;;;;;;8.15;4.00;;;9.60;99.90;;;;;;12472996;28;20114;-37
2021/11/06 19:17:27;;;;;;;6.57;3.47;;;9.60;99.90;;;;;;12470941;28;20080;-37
2021/11/06 19:23:29;;;;;;;7.53;3.95;;;9.60;99.90;;;;;;12470253;28;20042;-41
2021/11/06 19:29:31;;;;;;;8.50;4.65;;;9.70;99.90;;;;;;12470096;28;20081;-41
2021/11/06 19:35:33;;;;;;;10.18;5.13;;;9.60;99.90;;;;;;12472667;28;20082;-37
2021/11/06 19:41:35;;;;;;;7.63;4.93;;;9.50;99.90;;;;;;12468656;28;20069;-37
2021/11/06 19:47:41;;;;;;;8.00;5.18;;;9.50;99.90;;;;;;12471298;28;20504;-41
2021/11/06 19:53:44;;;;;;;9.07;5.80;;;9.50;99.90;;;;;;12471156;28;20080;-37
2021/11/06 19:59:46;;;;;;;8.57;6.00;;;9.50;99.90;;;;;;12450655;28;20056;-41
2021/11/06 20:05:48;;;;;;;11.27;6.07;;;9.60;99.90;;;;;;12469240;28;20136;-41
2021/11/06 20:11:50;;;;;;;10.98;6.95;;;9.50;99.90;;;;;;12467316;28;20045;-37
2021/11/06 20:17:52;;;;;;;15.73;6.47;;;9.50;99.90;;;;;;12471041;28;20103;-41
2021/11/06 20:23:54;;;;;;;13.82;6.93;;;9.60;99.90;;;;;;12467313;28;20049;-44
2021/11/06 20:29:56;;;;;;;11.35;7.20;;;9.50;99.90;;;;;;12469658;28;20175;-38
2021/11/06 20:35:58;;;;;;;11.85;7.65;;;9.40;99.90;;;;;;12450948;28;20076;-37
2021/11/06 20:42:00;;;;;;;15.57;7.88;;;9.40;99.90;;;;;;12467569;28;20168;-40
2021/11/06 20:48:03;;;;;;;16.42;9.23;;;9.40;99.90;;;;;;12471677;28;20041;-37
2021/11/06 20:54:07;;;;;;;15.60;8.57;;;9.40;99.90;;;;;;12468881;28;20500;-42
2021/11/06 21:00:15;;;;;;;11.35;7.95;;;9.40;99.90;;;;;;12467959;28;20077;-41
2021/11/06 21:06:17;;;;;;;12.77;7.45;;;9.40;99.90;;;;;;12468567;28;20049;-41
2021/11/06 21:18:31;;;;;;;;;;;9.40;99.90;;;;;;12470154;28;20749;-42
2021/11/06 21:24:37;;;;;;;8.88;6.07;;;9.40;99.90;;;;;;12468019;28;20387;-42
2021/11/06 21:30:39;;;;;;;9.75;5.95;;;9.50;99.90;;;;;;12468127;28;20083;-37
2021/11/06 21:36:48;;;;;;;8.57;6.70;;;9.40;99.90;;;;;;12478367;28;20093;-37
2021/11/06 21:42:53;;;;;;;8.90;5.60;;;9.40;99.90;;;;;;12482380;28;20057;-42
2021/11/06 21:48:56;;;;;;;9.25;6.05;;;9.40;99.90;;;;;;12480366;28;20491;-42
2021/11/06 21:54:59;;;;;;;8.57;5.47;;;9.50;99.90;;;;;;12477752;28;20049;-36
2021/11/06 22:01:01;;;;;;;8.65;5.75;;;9.50;99.90;;;;;;12473912;28;20183;-37
2021/11/06 22:07:04;;;;;;;10.13;5.95;;;9.50;99.90;;;;;;12476755;28;20041;-37
2021/11/06 22:13:10;;;;;;;8.10;5.40;;;9.40;99.90;;;;;;12476366;28;20052;-41
2021/11/06 22:19:14;;;;;;;11.15;5.47;;;9.40;99.90;;;;;;12475167;28;20049;-37
2021/11/06 22:25:16;;;;;;;8.03;4.90;;;9.50;99.90;;;;;;12475056;28;20420;-42
2021/11/06 22:31:21;;;;;;;9.10;5.18;;;9.40;99.90;;;;;;12459607;28;20085;-41
2021/11/06 22:37:23;;;;;;;10.05;5.18;;;9.40;99.90;;;;;;12474249;28;20049;-41
2021/11/06 22:43:26;;;;;;;7.38;4.80;;;9.30;99.90;;;;;;12478744;28;20049;-41
2021/11/06 22:49:28;;;;;;;8.05;4.70;;;9.30;99.90;;;;;;12473146;28;20046;-42
2021/11/06 22:55:32;;;;;;;8.23;4.78;;;9.30;99.90;;;;;;12475050;28;20492;-36
2021/11/06 23:01:34;;;;;;;8.27;5.00;;;9.30;99.90;;;;;;12458651;28;20514;-41
2021/11/06 23:07:37;;;;;;;11.45;5.95;;;9.20;99.90;;;;;;12476141;28;20148;-37
2021/11/06 23:13:42;;;;;;;13.52;5.40;;;9.20;99.90;;;;;;12474254;28;20114;-37
2021/11/06 23:19:44;;;;;;;8.57;5.10;;;9.20;99.90;;;;;;12473661;28;20053;-41
2021/11/06 23:25:47;;;;;;;8.68;4.82;;;9.20;99.90;;;;;;12472805;28;20144;-42
2021/11/06 23:31:54;;;;;;;10.13;5.00;;;9.20;99.90;;;;;;12474905;28;20633;-42
2021/11/06 23:37:56;;;;;;;9.73;4.45;;;9.20;99.90;;;;;;12474277;28;20045;-37
2021/11/06 23:43:58;;;;;;;7.53;4.18;;;9.20;99.90;;;;;;12469317;28;20037;-37
2021/11/06 23:50:01;;;;;;;6.35;4.50;;;9.20;99.90;;;;;;12471372;28;20037;-40
